Time;durP1;ratioP1;P1;durP2;ratioP2;P2;SDS_P1;SDS_P2;PMS_P1;PMS_P2;Temp;Humidity;BMP_temperature;BMP_pressure;BME280_temperature;BME280_humidity;BME280_pressure;Samples;Min_cycle;Max_cycle;Signal;HPM_P1;HPM_P2
2023/10/31 00:01:49;;;;;;;6.05;1.85;;;;;;;19.82;93.97;99676.63;5096088;28;20426;-51
2023/10/31 00:04:15;;;;;;;3.65;1.95;;;;;;;19.80;93.70;99672.59;5087317;28;20031;-51
2023/10/31 00:06:40;;;;;;;3.55;1.73;;;;;;;19.77;93.79;99681.47;5077743;28;20399;-51
2023/10/31 00:09:06;;;;;;;7.03;2.03;;;;;;;19.75;93.67;99679.03;5091479;28;20043;-48
2023/10/31 00:11:31;;;;;;;4.05;1.80;;;;;;;19.73;94.08;99687.59;5086642;28;20032;-48
2023/10/31 00:13:56;;;;;;;3.25;1.92;;;;;;;19.71;93.95;99676.09;5096788;28;20116;-48
2023/10/31 00:16:22;;;;;;;5.43;1.90;;;;;;;19.68;94.59;99671.25;5102818;28;20020;-46
2023/10/31 00:18:47;;;;;;;3.17;1.70;;;;;;;19.67;94.48;99682.56;5103485;28;20441;-48
2023/10/31 00:21:12;;;;;;;3.78;1.60;;;;;;;19.66;94.58;99681.72;5102215;28;20036;-51
2023/10/31 00:23:45;;;;;;;3.45;1.60;;;;;;;19.65;94.55;99685.59;5093422;28;20487;-47
2023/10/31 00:26:10;;;;;;;2.42;1.58;;;;;;;19.63;94.92;99679.63;5106020;28;20038;-50
2023/10/31 00:28:35;;;;;;;2.85;1.63;;;;;;;19.64;94.65;99683.19;5093223;28;20028;-49
2023/10/31 00:31:01;;;;;;;4.45;1.60;;;;;;;19.63;94.93;99684.31;5091568;28;20024;-47
2023/10/31 00:33:27;;;;;;;3.05;1.58;;;;;;;19.62;95.24;99683.50;5096332;28;20102;-48
2023/10/31 00:35:52;;;;;;;3.97;1.70;;;;;;;19.61;94.97;99689.28;5101436;28;20479;-51
2023/10/31 00:38:17;;;;;;;4.82;1.80;;;;;;;19.59;95.33;99686.06;5095827;28;20043;-50
2023/10/31 00:40:43;;;;;;;3.97;1.70;;;;;;;19.59;94.90;99686.06;5097711;28;20032;-49
2023/10/31 00:43:08;;;;;;;4.18;1.65;;;;;;;19.56;95.04;99691.06;5104465;28;20114;-49
2023/10/31 00:45:33;;;;;;;3.65;1.73;;;;;;;19.56;95.24;99690.25;5106568;28;20028;-48
2023/10/31 00:47:59;;;;;;;6.50;1.60;;;;;;;19.54;95.45;99696.06;5095523;28;20034;-48
2023/10/31 00:50:24;;;;;;;2.92;1.50;;;;;;;19.52;95.72;99695.56;5094394;28;20289;-53
2023/10/31 00:52:50;;;;;;;4.10;1.60;;;;;;;19.52;95.79;99692.00;5088672;28;20063;-52
2023/10/31 00:55:15;;;;;;;2.90;1.52;;;;;;;19.50;95.74;99694.28;5088624;28;20028;-47
2023/10/31 00:57:40;;;;;;;3.58;1.65;;;;;;;19.49;95.60;99704.44;5103684;28;20462;-47
2023/10/31 01:00:08;;;;;;;3.72;1.70;;;;;;;19.48;95.85;99707.50;5086136;28;20019;-46
2023/10/31 01:02:34;;;;;;;3.42;1.58;;;;;;;19.47;95.75;99705.88;5081328;28;20061;-46
2023/10/31 01:04:59;;;;;;;3.15;1.50;;;;;;;19.45;96.16;99714.44;5096919;28;20086;-53
2023/10/31 01:07:24;;;;;;;2.70;1.50;;;;;;;19.44;95.61;99703.78;5083205;28;20069;-51
2023/10/31 01:09:50;;;;;;;2.40;1.42;;;;;;;19.44;95.84;99717.50;5100348;28;20032;-50
2023/10/31 01:12:15;;;;;;;1.55;1.17;;;;;;;19.41;96.12;99716.19;5077204;28;20034;-47
2023/10/31 01:14:40;;;;;;;4.15;1.60;;;;;;;19.39;96.16;99716.50;5105116;28;20051;-49
2023/10/31 01:17:06;;;;;;;3.45;1.75;;;;;;;19.37;96.41;99718.78;5103685;28;20051;-50
2023/10/31 01:19:31;;;;;;;3.22;1.35;;;;;;;19.38;96.57;99727.81;5102779;28;20429;-50
2023/10/31 01:21:56;;;;;;;1.73;1.15;;;;;;;19.37;96.35;99726.19;5097136;28;20085;-48
2023/10/31 01:24:23;;;;;;;3.55;1.35;;;;;;;19.35;96.42;99733.91;5101362;28;20034;-50
2023/10/31 01:26:48;;;;;;;4.80;1.30;;;;;;;19.34;96.82;99735.06;5087112;28;20042;-53
2023/10/31 01:29:14;;;;;;;2.42;1.20;;;;;;;19.33;96.73;99733.44;5085938;28;20027;-49
2023/10/31 01:31:41;;;;;;;2.67;1.50;;;;;;;19.33;96.86;99744.44;5101821;28;20024;-47
2023/10/31 01:34:06;;;;;;;3.85;1.50;;;;;;;19.32;96.82;99740.84;5081561;28;20112;-52
2023/10/31 01:36:32;;;;;;;1.65;1.33;;;;;;;19.32;97.15;99742.78;5101781;28;20562;-52
2023/10/31 01:38:57;;;;;;;1.40;1.10;;;;;;;19.32;97.13;99751.03;5102524;28;20031;-51
2023/10/31 01:41:22;;;;;;;2.60;1.30;;;;;;;19.28;97.49;99741.81;5099901;28;20119;-51
2023/10/31 01:43:48;;;;;;;2.60;1.30;;;;;;;19.29;97.50;99749.72;5102730;28;20049;-48
2023/10/31 01:46:13;;;;;;;2.28;1.13;;;;;;;19.28;97.21;99747.31;5103753;28;20414;-49
2023/10/31 01:48:40;;;;;;;2.60;1.27;;;;;;;19.30;97.60;99764.25;5090142;28;20118;-46
2023/10/31 01:51:05;;;;;;;2.63;1.13;;;;;;;19.28;97.77;99764.59;5102703;28;20240;-49
2023/10/31 01:53:34;;;;;;;1.33;1.00;;;;;;;19.29;97.54;99763.47;5105123;28;20042;-49
2023/10/31 01:56:03;;;;;;;1.30;1.08;;;;;;;19.28;97.72;99764.59;5099018;28;20032;-50
2023/10/31 01:58:31;;;;;;;1.20;1.00;;;;;;;19.27;97.84;99771.19;5101086;28;20347;-47
2023/10/31 02:00:57;;;;;;;2.35;1.20;;;;;;;19.27;97.90;99773.94;5095457;28;20100;-47
2023/10/31 02:03:22;;;;;;;4.85;1.20;;;;;;;19.27;97.87;99778.63;5109701;27;20034;-47
2023/10/31 02:05:48;;;;;;;2.30;1.10;;;;;;;19.26;97.45;99777.81;5104781;28;20573;-46
2023/10/31 02:08:13;;;;;;;1.33;1.00;;;;;;;19.24;97.72;99783.63;5107599;28;20138;-48
2023/10/31 02:10:39;;;;;;;1.00;0.88;;;;;;;19.24;97.51;99785.56;5102230;28;20111;-46
2023/10/31 02:13:11;;;;;;;1.13;1.00;;;;;;;19.24;97.65;99785.56;5103905;28;20463;-46
2023/10/31 02:15:37;;;;;;;1.60;1.10;;;;;;;19.24;97.99;99796.56;5109264;28;20032;-47
2023/10/31 02:18:02;;;;;;;1.70;0.95;;;;;;;19.22;97.70;99790.56;5105985;28;20019;-47
2023/10/31 02:20:28;;;;;;;1.02;0.90;;;;;;;19.21;97.74;99789.75;5101662;28;20038;-46
2023/10/31 02:22:53;;;;;;;1.33;1.00;;;;;;;19.22;97.54;99790.56;5098109;28;20019;-46
2023/10/31 02:25:18;;;;;;;1.63;0.90;;;;;;;19.20;97.93;99787.28;5098899;28;20118;-47
2023/10/31 02:27:44;;;;;;;1.50;0.85;;;;;;;19.20;98.27;99795.53;5104907;28;20024;-49
2023/10/31 02:30:10;;;;;;;1.00;0.90;;;;;;;19.19;98.12;99791.16;5104322;28;20042;-45
2023/10/31 02:32:35;;;;;;;1.33;0.80;;;;;;;19.18;98.16;99795.06;5101255;28;20023;-46
2023/10/31 02:35:01;;;;;;;2.35;0.80;;;;;;;19.17;98.16;99799.72;5099586;28;20115;-46
2023/10/31 02:37:26;;;;;;;1.25;0.80;;;;;;;19.17;97.91;99796.16;5101701;28;20470;-46
2023/10/31 02:39:51;;;;;;;1.83;1.00;;;;;;;19.15;98.34;99806.63;5104879;28;20039;-47
2023/10/31 02:42:17;;;;;;;0.98;0.70;;;;;;;19.14;98.23;99807.75;5098319;28;20020;-46
2023/10/31 02:44:42;;;;;;;2.22;0.88;;;;;;;19.15;98.29;99817.63;5097314;28;20027;-46
2023/10/31 02:47:07;;;;;;;1.15;0.85;;;;;;;19.13;98.14;99817.13;5102782;28;20503;-44
2023/10/31 02:49:33;;;;;;;1.77;0.88;;;;;;;19.12;98.07;99812.78;5106820;28;20385;-48
2023/10/31 02:51:58;;;;;;;2.75;1.00;;;;;;;19.13;98.21;99812.44;5103699;28;20027;-49
2023/10/31 02:54:23;;;;;;;2.20;0.90;;;;;;;19.11;98.48;99806.44;5105866;28;20063;-47
2023/10/31 02:56:49;;;;;;;2.15;0.95;;;;;;;19.10;98.22;99815.81;5105651;28;20051;-49
2023/10/31 02:59:14;;;;;;;1.85;0.80;;;;;;;19.12;98.49;99815.50;5100851;28;20030;-47
2023/10/31 03:01:39;;;;;;;1.50;0.98;;;;;;;19.10;98.59;99806.75;5106838;28;20460;-48
2023/10/31 03:04:05;;;;;;;1.73;0.88;;;;;;;19.10;98.59;99813.06;5112115;27;20073;-48
2023/10/31 03:06:30;;;;;;;2.05;0.82;;;;;;;19.10;98.74;99815.00;5102120;28;20016;-47
2023/10/31 03:08:56;;;;;;;3.05;0.90;;;;;;;19.09;98.75;99811.44;5099878;28;20016;-48
2023/10/31 03:11:25;;;;;;;2.75;1.08;;;;;;;19.07;98.43;99825.47;5104988;28;20471;-47
2023/10/31 03:13:51;;;;;;;1.35;0.60;;;;;;;19.07;98.73;99836.47;5102076;28;20121;-49
2023/10/31 03:16:16;;;;;;;2.63;0.80;;;;;;;19.05;98.69;99832.41;5104001;28;20016;-46
2023/10/31 03:18:42;;;;;;;1.48;0.93;;;;;;;19.05;98.95;99835.94;5080579;28;20430;-47
2023/10/31 03:21:07;;;;;;;5.68;1.05;;;;;;;19.05;99.05;99843.38;5098006;28;20034;-46
2023/10/31 03:23:33;;;;;;;1.73;1.23;;;;;;;19.05;98.64;99835.94;5085029;28;20038;-48
2023/10/31 03:25:58;;;;;;;1.05;0.90;;;;;;;19.05;99.19;99837.88;5081364;28;20523;-52
2023/10/31 03:28:24;;;;;;;1.13;0.80;;;;;;;19.04;98.86;99844.50;5104339;28;20119;-48
2023/10/31 03:30:50;;;;;;;1.88;0.90;;;;;;;19.02;99.00;99839.31;5107290;28;20371;-52
2023/10/31 03:33:16;;;;;;;1.85;0.80;;;;;;;19.02;98.84;99842.06;5082546;28;20028;-47
2023/10/31 03:35:42;;;;;;;1.65;0.80;;;;;;;19.02;98.95;99846.75;5097622;28;20035;-48
2023/10/31 03:38:08;;;;;;;6.80;0.90;;;;;;;19.01;98.87;99839.63;5098957;28;20078;-46
2023/10/31 03:40:33;;;;;;;1.75;0.90;;;;;;;18.99;98.89;99841.88;5101923;28;20043;-47
2023/10/31 03:42:59;;;;;;;1.17;0.80;;;;;;;18.99;99.07;99833.63;5107371;28;20048;-50
2023/10/31 03:45:24;;;;;;;2.35;0.90;;;;;;;18.95;99.24;99827.94;5103094;28;20482;-49
2023/10/31 03:47:49;;;;;;;2.28;0.90;;;;;;;18.98;99.09;99840.25;5100979;28;20454;-49
2023/10/31 03:50:15;;;;;;;1.30;0.95;;;;;;;18.97;99.01;99839.44;5082022;28;20052;-49
2023/10/31 03:52:40;;;;;;;3.03;0.88;;;;;;;18.96;99.39;99845.22;5101480;28;20123;-51
2023/10/31 03:55:06;;;;;;;2.25;0.88;;;;;;;18.97;99.54;99844.09;5098913;28;20027;-48
2023/10/31 03:57:31;;;;;;;2.10;0.85;;;;;;;18.95;99.27;99840.88;5101076;28;20513;-48
2023/10/31 03:59:56;;;;;;;1.70;1.10;;;;;;;18.94;99.71;99845.53;5098739;28;20510;-48
2023/10/31 04:02:22;;;;;;;0.90;0.70;;;;;;;18.94;99.55;99845.53;5095788;28;20056;-48
2023/10/31 04:04:47;;;;;;;1.73;0.85;;;;;;;18.93;99.41;99841.16;5101094;28;20058;-52
2023/10/31 04:07:13;;;;;;;1.90;1.13;;;;;;;18.93;99.63;99849.41;5099037;28;20072;-49
2023/10/31 04:09:38;;;;;;;1.45;0.80;;;;;;;18.93;99.76;99852.13;5099263;28;20055;-54
2023/10/31 04:12:04;;;;;;;1.00;0.80;;;;;;;18.91;99.51;99857.94;5088469;28;20066;-48
2023/10/31 04:14:29;;;;;;;2.42;0.98;;;;;;;18.91;99.40;99863.44;5088522;28;20089;-50
2023/10/31 04:16:55;;;;;;;1.98;0.80;;;;;;;18.90;99.61;99866.47;5096405;28;20059;-49
2023/10/31 04:19:20;;;;;;;0.60;0.60;;;;;;;18.91;99.76;99874.41;5103127;28;20031;-47
2023/10/31 04:21:45;;;;;;;2.63;1.08;;;;;;;18.89;99.46;99873.88;5101173;28;20029;-48
2023/10/31 04:24:11;;;;;;;1.40;0.73;;;;;;;18.89;99.30;99879.34;5098547;28;20059;-47
2023/10/31 04:26:36;;;;;;;1.73;0.80;;;;;;;18.88;99.85;99882.41;5095479;28;20028;-48
2023/10/31 04:29:01;;;;;;;0.57;0.57;;;;;;;18.88;99.87;99888.75;5105176;28;20114;-48
2023/10/31 04:31:27;;;;;;;1.23;0.90;;;;;;;18.87;99.93;99883.53;5099725;28;20113;-49
2023/10/31 04:33:52;;;;;;;1.00;0.77;;;;;;;18.87;99.88;99886.28;5105067;28;20066;-49
2023/10/31 04:36:17;;;;;;;0.60;0.60;;;;;;;18.86;99.99;99885.47;5100068;28;20027;-50
2023/10/31 04:38:43;;;;;;;2.22;0.73;;;;;;;18.86;99.77;99884.66;5093153;28;20035;-48
2023/10/31 04:41:09;;;;;;;1.05;0.80;;;;;;;18.85;99.48;99883.84;5106478;28;20054;-46
2023/10/31 04:43:35;;;;;;;2.95;0.98;;;;;;;18.85;99.85;99888.53;5103399;28;20028;-46
2023/10/31 04:46:00;;;;;;;2.17;0.90;;;;;;;18.85;99.66;99894.03;5113655;28;20038;-46
2023/10/31 04:48:26;;;;;;;1.00;0.80;;;;;;;18.85;99.65;99899.53;5101086;28;20097;-46
2023/10/31 04:50:51;;;;;;;1.20;0.80;;;;;;;18.82;99.88;99898.19;5095395;28;20360;-51
2023/10/31 04:53:16;;;;;;;2.85;0.95;;;;;;;18.83;99.22;99899.00;5098376;28;20068;-47
2023/10/31 04:55:42;;;;;;;2.15;0.95;;;;;;;18.80;99.44;99908.66;5105425;28;20032;-46
2023/10/31 04:58:07;;;;;;;3.60;0.90;;;;;;;18.79;99.51;99909.78;5100428;28;20389;-47
2023/10/31 05:00:33;;;;;;;2.05;1.00;;;;;;;18.79;99.49;99917.22;5076635;28;20467;-45
2023/10/31 05:02:59;;;;;;;1.08;0.70;;;;;;;18.79;99.91;99917.22;5105907;28;20032;-46
2023/10/31 05:05:25;;;;;;;1.63;0.98;;;;;;;18.76;99.66;99930.41;5105887;28;20051;-50
2023/10/31 05:07:50;;;;;;;2.75;0.85;;;;;;;18.77;99.80;99931.22;5102702;28;20023;-46
2023/10/31 05:10:15;;;;;;;1.00;0.95;;;;;;;18.75;99.83;99930.72;5107235;27;20027;-48
2023/10/31 05:12:41;;;;;;;0.70;0.70;;;;;;;18.75;99.75;99931.53;5107309;28;20106;-47
2023/10/31 05:15:07;;;;;;;1.50;0.90;;;;;;;18.74;100.00;99934.59;5100336;28;20520;-46
2023/10/31 05:17:32;;;;;;;9.38;0.88;;;;;;;18.73;100.00;99939.25;5102264;28;20039;-47
2023/10/31 05:19:58;;;;;;;4.80;0.98;;;;;;;18.72;99.48;99939.56;5103176;28;20067;-47
2023/10/31 05:22:23;;;;;;;1.50;0.90;;;;;;;18.69;100.00;99938.22;5108269;28;21082;-48
2023/10/31 05:24:48;;;;;;;3.15;0.80;;;;;;;18.71;99.79;99943.41;5103194;28;20035;-48
2023/10/31 05:27:14;;;;;;;1.65;1.10;;;;;;;18.69;99.95;99948.41;5103203;28;20027;-52
2023/10/31 05:29:39;;;;;;;1.63;0.82;;;;;;;18.69;100.00;99948.41;5098278;28;20028;-48
2023/10/31 05:32:05;;;;;;;4.68;1.10;;;;;;;18.67;100.00;99945.94;5104676;28;20035;-45
2023/10/31 05:34:30;;;;;;;1.63;0.80;;;;;;;18.65;99.74;99945.47;5105872;28;20118;-46
2023/10/31 05:36:56;;;;;;;2.08;1.02;;;;;;;18.64;99.52;99943.81;5100686;28;20031;-47
2023/10/31 05:39:21;;;;;;;2.47;0.98;;;;;;;18.65;100.00;99950.94;5108664;28;20028;-48
2023/10/31 05:41:46;;;;;;;1.10;0.77;;;;;;;18.66;100.00;99946.25;5115202;27;20081;-47
2023/10/31 05:44:12;;;;;;;1.05;0.68;;;;;;;18.71;100.00;99960.72;5107008;28;20556;-47
2023/10/31 05:46:41;;;;;;;1.17;0.70;;;;;;;18.79;100.00;99952.91;5082451;28;20459;-47
2023/10/31 05:49:07;;;;;;;1.83;0.85;;;;;;;18.87;100.00;99958.50;5104870;28;20046;-47
2023/10/31 05:51:33;;;;;;;1.20;0.80;;;;;;;18.95;99.47;99957.00;5105703;28;20039;-45
2023/10/31 05:53:59;;;;;;;5.45;1.08;;;;;;;19.05;99.28;99958.72;5101737;28;20043;-46
2023/10/31 05:56:25;;;;;;;1.58;0.80;;;;;;;19.16;98.58;99954.66;5100160;28;20027;-49
2023/10/31 05:58:50;;;;;;;2.13;0.80;;;;;;;19.27;98.42;99955.25;5108017;28;20032;-46
2023/10/31 06:01:15;;;;;;;2.28;0.70;;;;;;;19.35;97.83;99970.19;5110314;27;20399;-50
2023/10/31 06:03:45;;;;;;;1.10;0.80;;;;;;;19.50;97.15;99969.06;5094438;28;20043;-49
2023/10/31 06:06:11;;;;;;;1.50;0.70;;;;;;;19.63;96.71;99971.00;5098927;27;20027;-46
2023/10/31 06:08:37;;;;;;;1.83;0.90;;;;;;;19.74;96.39;99963.31;5106143;28;20031;-45
2023/10/31 06:11:03;;;;;;;6.50;0.93;;;;;;;19.88;95.74;99966.84;5100689;28;20031;-46
2023/10/31 06:13:31;;;;;;;3.00;0.70;;;;;;;20.00;95.64;99966.31;5100461;28;20087;-47
2023/10/31 06:15:57;;;;;;;2.80;0.70;;;;;;;20.13;94.68;99967.38;5098387;28;20063;-46
2023/10/31 06:18:23;;;;;;;1.80;0.80;;;;;;;20.25;94.53;99974.28;5095510;28;20209;-46
2023/10/31 06:20:48;;;;;;;1.25;0.93;;;;;;;20.38;93.87;99980.81;5099656;28;20027;-48
2023/10/31 06:23:14;;;;;;;4.07;1.00;;;;;;;20.49;93.48;99984.94;5092416;28;20016;-50
2023/10/31 06:25:39;;;;;;;1.08;0.60;;;;;;;20.57;93.10;99980.63;5103990;28;20102;-46
2023/10/31 06:28:04;;;;;;;3.13;0.70;;;;;;;20.63;92.57;99990.38;5096202;28;20438;-46
2023/10/31 06:30:30;;;;;;;1.70;1.10;;;;;;;20.63;92.43;99980.16;5101282;28;20074;-46
2023/10/31 06:32:55;;;;;;;13.45;1.20;;;;;;;20.65;92.73;99996.38;5094268;28;20479;-46
2023/10/31 06:35:24;;;;;;;11.00;1.13;;;;;;;20.66;93.16;100001.56;5100098;28;20050;-38
2023/10/31 06:37:49;;;;;;;9.40;1.20;;;;;;;20.68;93.89;99996.53;5103735;28;20024;-37
2023/10/31 06:40:15;;;;;;;1.88;0.90;;;;;;;20.67;93.75;99997.69;5105651;28;20076;-36
2023/10/31 06:42:40;;;;;;;2.20;1.00;;;;;;;20.68;94.18;100001.25;5108694;28;20023;-39
2023/10/31 06:45:07;;;;;;;3.35;1.08;;;;;;;20.67;94.57;100007.88;5107047;28;20032;-40
2023/10/31 06:47:32;;;;;;;5.40;1.00;;;;;;;20.67;94.83;100007.88;5108806;27;20470;-39
2023/10/31 06:49:58;;;;;;;3.80;1.20;;;;;;;20.67;94.73;100013.38;5103173;28;20024;-43
2023/10/31 06:52:23;;;;;;;6.10;1.00;;;;;;;20.67;94.45;100022.47;5107039;28;20085;-41
2023/10/31 06:54:49;;;;;;;4.15;0.98;;;;;;;20.69;94.61;100027.66;5104194;28;20479;-40
2023/10/31 06:57:16;;;;;;;5.65;1.20;;;;;;;20.69;94.58;100019.41;5101546;28;20458;-42
2023/10/31 06:59:41;;;;;;;4.45;1.00;;;;;;;20.67;94.99;100022.47;5099715;28;20023;-39
2023/10/31 07:02:07;;;;;;;4.43;0.90;;;;;;;20.66;95.01;100023.59;5087247;28;20032;-42
2023/10/31 07:04:32;;;;;;;1.92;0.73;;;;;;;20.64;95.14;100023.09;5103213;28;20486;-38
2023/10/31 07:06:57;;;;;;;2.33;1.10;;;;;;;20.63;95.05;100029.72;5099984;28;20063;-46
2023/10/31 07:09:24;;;;;;;2.70;1.00;;;;;;;20.64;94.71;100036.84;5106884;28;20019;-52
2023/10/31 07:11:49;;;;;;;1.95;0.90;;;;;;;20.64;94.60;100027.78;5098469;27;20310;-50
2023/10/31 07:14:14;;;;;;;1.10;0.70;;;;;;;20.65;93.68;100027.47;5087735;28;20426;-48
2023/10/31 07:16:40;;;;;;;2.38;1.23;;;;;;;20.69;94.04;100047.72;5103291;28;20372;-51
2023/10/31 07:19:05;;;;;;;1.63;0.73;;;;;;;20.73;93.78;100042.44;5097483;28;20027;-50
2023/10/31 07:21:31;;;;;;;2.67;0.90;;;;;;;20.77;93.26;100048.97;5098335;28;20058;-47
2023/10/31 07:23:56;;;;;;;2.50;0.85;;;;;;;20.78;93.36;100049.75;5094790;28;20016;-47
2023/10/31 07:26:22;;;;;;;0.80;0.70;;;;;;;20.84;93.11;100054.00;5099706;27;20063;-45
2023/10/31 07:28:48;;;;;;;3.45;0.80;;;;;;;20.88;93.03;100060.50;5104226;28;20028;-46
2023/10/31 07:31:14;;;;;;;2.10;0.85;;;;;;;20.91;93.12;100061.84;5088536;28;20121;-46
2023/10/31 07:33:39;;;;;;;1.88;0.90;;;;;;;20.94;92.88;100069.47;5106427;28;20420;-50
2023/10/31 07:36:05;;;;;;;3.13;1.20;;;;;;;20.95;93.05;100071.09;5098091;28;20023;-48
2023/10/31 07:38:30;;;;;;;2.13;0.88;;;;;;;20.94;92.97;100077.72;5081431;28;20096;-39
2023/10/31 07:40:55;;;;;;;2.08;0.90;;;;;;;20.92;93.08;100072.53;5098671;28;20028;-41
2023/10/31 07:43:21;;;;;;;3.13;0.82;;;;;;;20.92;93.23;100082.72;5098484;28;20043;-38
2023/10/31 07:45:47;;;;;;;2.42;1.10;;;;;;;20.90;93.27;100083.03;5105317;28;20034;-42
2023/10/31 07:48:12;;;;;;;1.17;1.02;;;;;;;20.90;92.61;100085.00;5088155;28;20169;-46
2023/10/31 07:50:37;;;;;;;3.42;1.50;;;;;;;20.89;92.71;100080.63;5097590;28;20034;-48
2023/10/31 07:53:03;;;;;;;1.83;1.02;;;;;;;20.88;92.21;100071.53;5100108;28;20521;-47
2023/10/31 07:55:28;;;;;;;3.20;1.23;;;;;;;20.88;92.12;100065.22;5098340;28;20074;-44
2023/10/31 07:57:54;;;;;;;25.48;2.55;;;;;;;20.87;91.92;100075.44;5107499;28;20098;-44
2023/10/31 08:00:19;;;;;;;14.63;1.40;;;;;;;20.87;92.73;100066.34;5096342;27;20031;-44
2023/10/31 08:02:44;;;;;;;12.20;1.42;;;;;;;20.84;92.72;100073.28;5083890;28;20027;-44
2023/10/31 08:05:10;;;;;;;7.32;1.30;;;;;;;20.80;92.55;100075.84;5104888;28;20054;-45
2023/10/31 08:07:35;;;;;;;6.30;1.40;;;;;;;20.77;92.40;100079.25;5102422;28;20031;-46
2023/10/31 08:10:01;;;;;;;4.45;1.17;;;;;;;20.73;92.84;100086.50;5091946;28;20020;-45
2023/10/31 08:12:26;;;;;;;3.90;1.38;;;;;;;20.68;92.66;100081.09;5095973;28;20034;-49
2023/10/31 08:14:52;;;;;;;5.20;1.33;;;;;;;20.66;92.59;100091.59;5096536;28;20052;-44
2023/10/31 08:17:17;;;;;;;9.27;1.30;;;;;;;20.62;92.34;100085.91;5101275;27;20618;-46
2023/10/31 08:19:43;;;;;;;4.03;1.20;;;;;;;20.60;92.41;100090.09;5097347;28;20032;-45
2023/10/31 08:22:08;;;;;;;3.28;1.33;;;;;;;20.57;92.63;100094.28;5101948;28;20028;-47
2023/10/31 08:24:35;;;;;;;1.80;1.35;;;;;;;20.56;93.01;100087.16;5092121;28;20110;-47
2023/10/31 08:27:02;;;;;;;3.95;1.17;;;;;;;20.52;92.94;100092.47;5085047;28;20115;-46
2023/10/31 08:29:27;;;;;;;4.22;1.30;;;;;;;20.52;92.79;100091.66;5106341;28;20069;-45
2023/10/31 08:31:52;;;;;;;3.13;1.30;;;;;;;20.49;92.50;100097.78;5096942;28;20028;-47
2023/10/31 08:34:18;;;;;;;3.03;1.25;;;;;;;20.47;92.57;100106.34;5098758;28;20106;-45
2023/10/31 08:36:43;;;;;;;5.15;1.65;;;;;;;20.46;92.56;100101.97;5105393;28;20050;-44
2023/10/31 08:39:08;;;;;;;5.72;1.52;;;;;;;20.44;92.96;100106.16;5099812;28;20076;-44
2023/10/31 08:41:34;;;;;;;6.30;1.85;;;;;;;20.43;92.90;100110.88;5106229;28;20496;-46
2023/10/31 08:44:01;;;;;;;4.38;1.40;;;;;;;20.41;92.92;100109.56;5105016;28;20024;-48
2023/10/31 08:46:26;;;;;;;3.90;1.73;;;;;;;20.40;93.11;100116.19;5116608;27;20089;-44
2023/10/31 08:48:52;;;;;;;3.35;1.77;;;;;;;20.38;93.20;100113.75;5110609;28;20518;-44
2023/10/31 08:51:17;;;;;;;4.00;1.70;;;;;;;20.38;93.10;100118.41;5104561;28;20084;-44
2023/10/31 08:53:42;;;;;;;5.53;2.00;;;;;;;20.35;93.59;100111.59;5094842;28;20299;-44
2023/10/31 08:56:08;;;;;;;4.68;1.70;;;;;;;20.34;93.56;100112.72;5098227;28;20054;-44
2023/10/31 08:58:33;;;;;;;3.88;1.75;;;;;;;20.32;93.68;100114.97;5102918;28;20462;-44
2023/10/31 09:00:58;;;;;;;4.65;1.60;;;;;;;20.31;93.69;100121.59;5093475;28;20039;-45
2023/10/31 09:03:24;;;;;;;2.88;1.58;;;;;;;20.30;93.67;100125.47;5099605;28;20028;-45
2023/10/31 09:05:50;;;;;;;3.92;1.58;;;;;;;20.28;93.45;100125.78;5106865;28;20027;-45
2023/10/31 09:08:15;;;;;;;4.80;1.60;;;;;;;20.28;93.83;100138.72;5101131;28;20024;-45
2023/10/31 09:10:42;;;;;;;4.47;1.70;;;;;;;20.26;93.55;100139.03;5107503;28;20028;-45
2023/10/31 09:13:08;;;;;;;4.13;1.60;;;;;;;20.27;93.65;100148.09;5095304;28;20013;-45
2023/10/31 09:15:33;;;;;;;3.88;1.60;;;;;;;20.24;93.92;100144.03;5105221;28;20058;-46
2023/10/31 09:17:58;;;;;;;2.85;1.50;;;;;;;20.24;93.70;100152.28;5099043;28;20028;-47
2023/10/31 09:20:24;;;;;;;3.40;1.98;;;;;;;20.24;93.62;100155.03;5099828;28;20409;-44
2023/10/31 09:22:49;;;;;;;3.35;1.70;;;;;;;20.22;94.07;100143.53;5110138;27;20078;-46
2023/10/31 09:25:15;;;;;;;5.13;1.85;;;;;;;20.23;94.16;100152.59;5090651;28;20505;-44
2023/10/31 09:27:40;;;;;;;2.67;1.60;;;;;;;20.22;93.79;100153.72;5096444;28;20035;-46
2023/10/31 09:30:07;;;;;;;3.03;1.55;;;;;;;20.21;93.98;100155.66;5094777;28;20024;-45
2023/10/31 09:32:32;;;;;;;4.97;1.83;;;;;;;20.20;94.61;100163.09;5103353;28;20047;-47
2023/10/31 09:34:58;;;;;;;4.45;1.65;;;;;;;20.19;94.57;100158.69;5105120;28;20174;-45
2023/10/31 09:37:24;;;;;;;6.80;1.60;;;;;;;20.19;94.61;100155.94;5103042;27;20123;-46
2023/10/31 09:39:49;;;;;;;3.00;1.80;;;;;;;20.20;94.86;100165.84;5101916;28;20110;-47
2023/10/31 09:42:14;;;;;;;4.68;1.67;;;;;;;20.22;95.61;100171.06;5096455;28;20034;-45
2023/10/31 09:44:40;;;;;;;3.72;1.55;;;;;;;20.22;95.69;100159.22;5102782;28;20487;-45
2023/10/31 09:47:06;;;;;;;3.13;1.70;;;;;;;20.23;95.35;100169.09;5079946;28;20416;-48
2023/10/31 09:49:31;;;;;;;3.53;1.67;;;;;;;20.24;95.85;100165.25;5102243;28;20053;-43
2023/10/31 09:51:57;;;;;;;7.22;1.63;;;;;;;20.26;96.08;100168.50;5097028;28;20042;-41
2023/10/31 09:54:23;;;;;;;9.30;1.77;;;;;;;20.29;96.38;100165.13;5098404;28;20031;-44
2023/10/31 09:56:49;;;;;;;6.35;1.70;;;;;;;20.31;96.40;100168.38;5080377;28;20549;-39
2023/10/31 09:59:15;;;;;;;6.93;1.83;;;;;;;20.36;96.53;100180.06;5098866;28;20023;-41
2023/10/31 10:01:41;;;;;;;31.83;2.80;;;;;;;20.40;96.41;100174.78;5102152;27;20502;-39
2023/10/31 10:04:07;;;;;;;4.40;1.70;;;;;;;20.46;96.45;100186.50;5096926;28;20482;-39
2023/10/31 10:06:32;;;;;;;11.15;1.90;;;;;;;20.49;96.39;100183.94;5091881;27;20124;-41
2023/10/31 10:08:58;;;;;;;5.45;1.67;;;;;;;20.53;96.35;100190.44;5095125;28;20515;-39
2023/10/31 10:11:24;;;;;;;6.32;2.38;;;;;;;20.56;96.26;100191.75;5102508;27;20033;-40
2023/10/31 10:13:52;;;;;;;4.95;1.63;;;;;;;20.58;95.97;100200.53;5085536;28;20446;-39
2023/10/31 10:16:31;;;;;;;4.93;1.80;;;;;;;20.60;95.50;100198.28;5084632;27;20600;-41
2023/10/31 10:18:56;;;;;;;3.53;1.60;;;;;;;20.62;95.04;100203.47;5098162;28;20471;-38
2023/10/31 10:21:21;;;;;;;7.15;2.05;;;;;;;20.62;95.21;100207.03;5091992;28;20028;-39
2023/10/31 10:23:49;;;;;;;6.32;1.90;;;;;;;20.64;95.10;100209.50;5073320;28;20384;-40
2023/10/31 10:26:14;;;;;;;4.05;1.83;;;;;;;20.64;94.76;100210.31;5094385;28;20031;-40
2023/10/31 10:28:40;;;;;;;7.32;2.30;;;;;;;20.64;94.92;100212.25;5092194;28;20466;-37
2023/10/31 10:31:06;;;;;;;6.93;1.75;;;;;;;20.65;94.99;100216.63;5095163;28;20491;-36
2023/10/31 10:33:33;;;;;;;5.68;2.10;;;;;;;20.64;94.93;100212.25;5100046;28;20023;-35
2023/10/31 10:35:59;;;;;;;4.85;1.70;;;;;;;20.63;94.82;100214.19;5099409;28;20059;-39
2023/10/31 10:38:25;;;;;;;4.40;1.88;;;;;;;20.64;94.74;100220.50;5097938;27;20034;-36
2023/10/31 10:40:50;;;;;;;6.75;1.90;;;;;;;20.63;94.61;100216.94;5079499;28;20023;-37
2023/10/31 10:43:23;;;;;;;5.57;2.10;;;;;;;20.63;94.83;100219.69;5077934;28;20030;-38
2023/10/31 10:45:56;;;;;;;4.32;2.30;;;;;;;20.63;94.46;100224.38;5101945;28;20023;-38
2023/10/31 10:48:23;;;;;;;6.75;2.42;;;;;;;20.62;94.23;100220.81;5099679;28;21075;-42
2023/10/31 10:50:55;;;;;;;6.53;2.30;;;;;;;20.62;94.61;100223.56;5100605;28;20049;-39
2023/10/31 10:53:25;;;;;;;8.13;2.30;;;;;;;20.63;95.11;100229.88;5096911;28;20024;-36
2023/10/31 10:56:08;;;;;;;30.45;4.95;;;;;;;20.63;95.92;100233.44;5084653;28;20030;-38
2023/10/31 10:58:38;;;;;;;36.53;5.97;;;;;;;20.64;95.49;100232.31;5081352;28;20518;-35
2023/10/31 11:01:04;;;;;;;24.23;5.80;;;;;;;20.64;95.01;100228.78;5064243;28;20062;-38
2023/10/31 11:03:30;;;;;;;21.63;4.72;;;;;;;20.66;95.16;100243.03;5094454;27;20552;-43
2023/10/31 11:05:55;;;;;;;22.85;4.95;;;;;;;20.64;95.51;100228.78;5091890;28;20032;-41
2023/10/31 11:08:21;;;;;;;22.92;4.38;;;;;;;20.67;95.62;100230.88;5075947;28;20106;-37
2023/10/31 11:10:47;;;;;;;15.52;4.20;;;;;;;20.67;95.57;100230.88;5099697;28;20054;-37
2023/10/31 11:13:12;;;;;;;20.13;5.20;;;;;;;20.69;95.17;100234.16;5105428;27;20034;-37
2023/10/31 11:15:38;;;;;;;21.38;5.60;;;;;;;20.69;95.07;100237.72;5099174;28;20030;-41
2023/10/31 11:18:04;;;;;;;15.00;4.15;;;;;;;20.69;95.17;100243.22;5082385;28;20069;-39
2023/10/31 11:20:31;;;;;;;12.93;4.60;;;;;;;20.71;95.18;100237.44;5081037;28;20039;-38
2023/10/31 11:22:57;;;;;;;15.68;4.65;;;;;;;20.71;95.15;100236.59;5082148;28;20372;-38